createdAt,value
2022-08-07T00:00:28.021Z,3.20
2022-08-07T00:02:57.723Z,3.17
2022-08-07T00:05:26.179Z,4.20
2022-08-07T00:07:59.537Z,5.33
2022-08-07T00:10:30.658Z,3.17
2022-08-07T00:13:02.079Z,3.40
2022-08-07T00:15:37.877Z,3.87
2022-08-07T00:18:19.231Z,4.90
2022-08-07T00:20:49.352Z,3.40
2022-08-07T00:23:18.110Z,3.43
2022-08-07T00:25:59.105Z,3.23
2022-08-07T00:28:33.319Z,3.60
2022-08-07T00:31:05.848Z,3.53
2022-08-07T00:33:36.105Z,3.93
2022-08-07T00:36:05.459Z,3.70
2022-08-07T00:38:36.613Z,3.40
2022-08-07T00:41:05.644Z,4.03
2022-08-07T00:44:00.947Z,4.40
2022-08-07T00:46:27.221Z,4.80
2022-08-07T00:49:02.050Z,5.00
2022-08-07T00:51:58.732Z,4.20
2022-08-07T00:54:19.943Z,4.10
2022-08-07T00:56:49.754Z,3.60
2022-08-07T00:59:32.321Z,4.23
2022-08-07T01:02:06.357Z,3.40
2022-08-07T01:04:44.108Z,5.33
2022-08-07T01:07:12.730Z,4.83
2022-08-07T01:10:06.144Z,3.73
2022-08-07T01:12:31.102Z,3.33
2022-08-07T01:15:01.687Z,6.23
2022-08-07T01:17:32.745Z,3.47
2022-08-07T01:20:06.741Z,3.40
2022-08-07T01:22:38.261Z,3.63
2022-08-07T01:25:40.410Z,5.40
2022-08-07T01:28:04.313Z,5.13
2022-08-07T01:30:33.012Z,3.70
2022-08-07T01:33:02.314Z,4.07
2022-08-07T01:35:52.730Z,3.77
2022-08-07T01:38:24.812Z,4.30
2022-08-07T01:40:54.883Z,4.20
2022-08-07T01:43:26.002Z,4.10
2022-08-07T01:45:55.196Z,3.63
2022-08-07T01:48:29.475Z,3.80
2022-08-07T01:51:24.540Z,5.70
2022-08-07T01:54:09.401Z,4.47
2022-08-07T01:56:43.154Z,3.90
2022-08-07T01:59:20.638Z,4.00
2022-08-07T02:01:59.970Z,4.57
2022-08-07T02:04:34.131Z,6.40
2022-08-07T02:07:04.913Z,5.10
2022-08-07T02:09:52.782Z,5.77
2022-08-07T02:12:30.897Z,4.50
2022-08-07T02:15:00.856Z,5.43
2022-08-07T02:17:31.690Z,5.10
2022-08-07T02:20:09.889Z,5.30
2022-08-07T02:22:45.811Z,5.37
2022-08-07T02:25:18.361Z,4.53
2022-08-07T02:27:51.271Z,5.97
2022-08-07T02:30:21.303Z,4.40
2022-08-07T02:33:03.861Z,5.03
2022-08-07T02:36:29.618Z,5.33
2022-08-07T02:38:31.679Z,6.70
2022-08-07T02:41:03.791Z,4.57
2022-08-07T02:43:32.969Z,4.97
2022-08-07T02:46:02.784Z,6.77
2022-08-07T02:48:32.459Z,5.33
2022-08-07T02:51:06.023Z,5.10
2022-08-07T02:53:38.667Z,5.00
2022-08-07T02:56:17.415Z,6.03
2022-08-07T02:58:47.234Z,5.00
2022-08-07T03:01:19.056Z,4.83
2022-08-07T03:04:07.120Z,6.47
2022-08-07T03:06:38.890Z,5.57
2022-08-07T03:09:11.004Z,5.50
2022-08-07T03:11:51.977Z,5.50
2022-08-07T03:14:26.426Z,5.33
2022-08-07T03:16:56.420Z,6.20
2022-08-07T03:19:28.911Z,7.13
2022-08-07T03:21:58.693Z,5.33
2022-08-07T03:24:28.017Z,5.27
2022-08-07T03:27:00.355Z,5.50
2022-08-07T03:29:29.874Z,4.90
2022-08-07T03:31:58.799Z,6.00
2022-08-07T03:34:28.808Z,4.93
2022-08-07T03:36:58.012Z,6.07
2022-08-07T03:39:46.345Z,4.53
2022-08-07T03:42:17.999Z,4.60
2022-08-07T03:44:53.570Z,4.00
2022-08-07T03:47:27.941Z,5.27
2022-08-07T03:49:58.389Z,4.83
2022-08-07T03:52:29.182Z,4.50
2022-08-07T03:55:06.820Z,4.40
2022-08-07T03:58:33.614Z,4.63
2022-08-07T04:00:30.146Z,4.70
2022-08-07T04:02:59.896Z,6.10
2022-08-07T04:05:40.996Z,5.33
2022-08-07T04:08:12.373Z,5.97
2022-08-07T04:10:42.359Z,5.33
2022-08-07T04:13:15.435Z,5.40
2022-08-07T04:15:45.508Z,6.13
2022-08-07T04:18:58.262Z,6.87
2022-08-07T04:21:03.542Z,6.00
2022-08-07T04:24:03.475Z,7.83
2022-08-07T04:26:25.171Z,10.90
2022-08-07T04:28:58.530Z,6.83
2022-08-07T04:32:02.329Z,5.97
2022-08-07T04:34:17.045Z,6.53
2022-08-07T04:36:52.185Z,7.00
2022-08-07T04:39:25.789Z,7.53
2022-08-07T04:41:54.445Z,6.97
2022-08-07T04:44:24.245Z,6.40
2022-08-07T04:47:04.319Z,6.87
2022-08-07T04:49:40.448Z,10.37
2022-08-07T04:52:12.724Z,6.97
2022-08-07T04:54:50.465Z,6.67
2022-08-07T04:58:14.419Z,7.40
2022-08-07T05:00:17.184Z,6.37
2022-08-07T05:02:53.607Z,6.23
2022-08-07T05:05:52.817Z,6.60
2022-08-07T05:08:16.883Z,6.67
2022-08-07T05:10:47.117Z,6.30
2022-08-07T05:14:53.824Z,8.07
2022-08-07T05:16:10.452Z,7.83
2022-08-07T05:18:42.722Z,6.90
2022-08-07T05:21:14.715Z,6.20
2022-08-07T05:23:44.384Z,6.50
2022-08-07T05:26:23.627Z,6.47
2022-08-07T05:28:53.624Z,6.47
2022-08-07T05:31:35.171Z,6.57
2022-08-07T05:34:10.923Z,7.13
2022-08-07T05:36:40.798Z,6.73
2022-08-07T05:40:06.493Z,8.03
2022-08-07T05:42:01.176Z,5.87
2022-08-07T05:44:32.178Z,6.90
2022-08-07T05:47:18.057Z,6.33
2022-08-07T05:49:47.998Z,6.27
2022-08-07T05:52:16.299Z,6.90
2022-08-07T05:54:55.352Z,6.63
2022-08-07T05:57:26.556Z,6.30
2022-08-07T05:59:59.449Z,6.60
2022-08-07T06:02:30.589Z,8.60
2022-08-07T06:05:01.336Z,7.93
2022-08-07T06:08:14.916Z,5.97
2022-08-07T06:10:20.322Z,5.67
2022-08-07T06:12:49.081Z,6.90
2022-08-07T06:15:20.076Z,7.20
2022-08-07T06:17:53.714Z,7.07
2022-08-07T06:20:31.659Z,5.90
2022-08-07T06:23:46.809Z,5.83
2022-08-07T06:26:01.605Z,7.53
2022-08-07T06:28:30.361Z,5.83
2022-08-07T06:30:58.687Z,5.43
2022-08-07T06:33:29.671Z,5.63
2022-08-07T06:36:13.381Z,6.07
2022-08-07T06:38:59.273Z,5.57
2022-08-07T06:42:02.604Z,5.63
2022-08-07T06:44:22.158Z,7.47
2022-08-07T06:46:53.305Z,5.80
2022-08-07T06:49:29.829Z,5.25
2022-08-07T06:51:59.596Z,5.05
2022-08-07T06:55:33.327Z,5.20
2022-08-07T06:57:39.422Z,6.28
2022-08-07T07:00:17.751Z,6.47
2022-08-07T07:02:53.540Z,5.15
2022-08-07T07:06:03.856Z,4.47
2022-08-07T07:08:18.237Z,4.28
2022-08-07T07:10:57.085Z,6.72
2022-08-07T07:13:55.680Z,4.80
2022-08-07T07:16:19.961Z,4.40
2022-08-07T07:18:50.565Z,4.97
2022-08-07T07:21:22.472Z,4.53
2022-08-07T07:24:10.430Z,4.20
2022-08-07T07:26:51.845Z,6.65
2022-08-07T07:29:56.635Z,6.55
2022-08-07T07:32:11.470Z,4.97
2022-08-07T07:34:42.609Z,4.88
2022-08-07T07:37:21.864Z,3.63
2022-08-07T07:40:03.455Z,4.40
2022-08-07T07:42:39.337Z,5.43
2022-08-07T07:45:09.365Z,3.65
2022-08-07T07:47:42.894Z,4.32
2022-08-07T07:50:36.409Z,3.42
2022-08-07T07:53:20.388Z,3.92
2022-08-07T07:55:57.757Z,3.60
2022-08-07T07:58:30.880Z,3.92
2022-08-07T08:02:01.737Z,4.45
2022-08-07T08:04:10.906Z,3.30
2022-08-07T08:06:50.615Z,2.50
2022-08-07T08:09:23.005Z,2.67
2022-08-07T08:12:01.693Z,3.72
2022-08-07T08:14:31.809Z,3.50
2022-08-07T08:17:55.497Z,2.63
2022-08-07T08:20:17.251Z,2.83
2022-08-07T08:22:59.387Z,3.40
2022-08-07T08:25:49.282Z,4.13
2022-08-07T08:28:24.075Z,3.05
2022-08-07T08:31:08.329Z,3.20
2022-08-07T08:33:49.353Z,2.38
2022-08-07T08:36:25.532Z,2.10
2022-08-07T08:39:00.086Z,1.67
2022-08-07T08:41:58.750Z,3.13
2022-08-07T08:44:29.539Z,2.05
2022-08-07T08:47:04.427Z,2.15
2022-08-07T08:49:46.268Z,1.77
2022-08-07T08:52:20.176Z,1.40
2022-08-07T08:54:51.116Z,1.05
2022-08-07T08:57:25.470Z,2.00
2022-08-07T09:00:01.550Z,1.95
2022-08-07T09:02:37.440Z,2.28
2022-08-07T09:05:15.141Z,2.05
2022-08-07T09:07:57.488Z,2.63
2022-08-07T09:10:28.920Z,2.05
2022-08-07T09:13:06.888Z,2.78
2022-08-07T09:16:24.603Z,2.10
2022-08-07T09:18:38.176Z,3.00
2022-08-07T09:21:13.829Z,1.90
2022-08-07T09:24:31.665Z,4.20
2022-08-07T09:26:56.779Z,3.40
2022-08-07T09:30:05.705Z,3.40
2022-08-07T09:32:23.742Z,1.25
2022-08-07T09:35:04.774Z,1.90
2022-08-07T09:37:54.578Z,3.92
2022-08-07T09:40:25.693Z,1.70
2022-08-07T09:42:58.622Z,2.10
2022-08-07T09:47:25.583Z,2.35
2022-08-07T09:48:50.026Z,2.60
2022-08-07T09:52:16.253Z,2.15
2022-08-07T09:54:31.578Z,1.80
2022-08-07T09:57:12.962Z,4.40
2022-08-07T10:00:01.407Z,2.30
2022-08-07T10:02:55.483Z,3.10
2022-08-07T10:05:59.461Z,1.85
2022-08-07T10:08:45.796Z,2.53
2022-08-07T10:12:01.167Z,1.63
2022-08-07T10:14:23.107Z,2.58
2022-08-07T10:17:16.492Z,5.07
2022-08-07T10:19:50.950Z,1.40
2022-08-07T10:22:37.437Z,1.58
2022-08-07T10:25:12.713Z,1.60
2022-08-07T10:27:51.305Z,1.35
2022-08-07T10:30:20.562Z,1.90
2022-08-07T10:33:06.740Z,1.20
2022-08-07T10:35:53.654Z,1.35
2022-08-07T10:38:48.288Z,1.98
2022-08-07T10:41:47.070Z,2.75
2022-08-07T10:44:13.036Z,1.48
2022-08-07T10:46:49.083Z,4.85
2022-08-07T10:49:24.633Z,2.45
2022-08-07T10:52:16.083Z,1.10
2022-08-07T10:54:53.484Z,1.40
2022-08-07T10:57:35.267Z,1.92
2022-08-07T11:00:36.393Z,1.85
2022-08-07T11:03:01.971Z,1.88
2022-08-07T11:05:35.904Z,1.33
2022-08-07T11:08:21.698Z,1.63
2022-08-07T11:11:01.070Z,1.40
2022-08-07T11:14:42.704Z,1.30
2022-08-07T11:16:25.498Z,1.98
2022-08-07T11:19:01.777Z,2.13
2022-08-07T11:21:32.257Z,2.15
2022-08-07T11:24:04.890Z,2.08
2022-08-07T11:26:48.165Z,3.80
2022-08-07T11:29:40.796Z,1.30
2022-08-07T11:32:10.448Z,1.48
2022-08-07T11:34:42.484Z,1.20
2022-08-07T11:37:14.884Z,1.40
2022-08-07T11:40:00.372Z,1.02
2022-08-07T11:42:42.653Z,3.33
2022-08-07T11:45:15.250Z,1.58
2022-08-07T11:47:58.942Z,1.17
2022-08-07T11:50:36.461Z,3.85
2022-08-07T11:53:18.079Z,1.02
2022-08-07T11:56:26.003Z,2.65
2022-08-07T11:59:00.788Z,1.00
2022-08-07T12:01:59.946Z,2.67
2022-08-07T12:04:40.056Z,1.50
2022-08-07T12:07:19.008Z,1.42
2022-08-07T12:09:58.751Z,1.67
2022-08-07T12:12:34.624Z,1.65
2022-08-07T12:15:08.104Z,1.23
2022-08-07T12:17:59.196Z,1.33
2022-08-07T12:20:32.492Z,1.17
2022-08-07T12:23:14.277Z,1.35
2022-08-07T12:26:22.651Z,1.30
2022-08-07T12:28:56.914Z,2.15
2022-08-07T12:32:02.291Z,2.22
2022-08-07T12:34:21.523Z,2.70
2022-08-07T12:36:52.727Z,1.30
2022-08-07T12:39:44.087Z,1.95
2022-08-07T12:42:10.397Z,1.40
2022-08-07T12:44:44.921Z,1.60
2022-08-07T12:47:21.506Z,1.65
2022-08-07T12:50:04.365Z,1.52
2022-08-07T12:52:38.585Z,1.00
2022-08-07T12:55:17.748Z,1.40
2022-08-07T12:58:01.099Z,1.67
2022-08-07T13:00:36.022Z,1.13
2022-08-07T13:04:02.409Z,1.40
2022-08-07T13:06:28.590Z,1.63
2022-08-07T13:09:01.739Z,1.48
2022-08-07T13:12:00.968Z,1.10
2022-08-07T13:14:36.532Z,1.70
2022-08-07T13:17:07.723Z,2.90
2022-08-07T13:19:50.262Z,1.63
2022-08-07T13:22:28.380Z,7.78
2022-08-07T13:25:00.450Z,1.40
2022-08-07T13:28:11.499Z,1.45
2022-08-07T13:30:40.375Z,1.75
2022-08-07T13:34:34.374Z,2.30
2022-08-07T13:36:17.562Z,1.40
2022-08-07T13:38:54.224Z,1.65
2022-08-07T13:41:27.864Z,1.45
2022-08-07T13:43:58.755Z,1.90
2022-08-07T13:46:33.365Z,2.00
2022-08-07T13:49:08.736Z,3.63
2022-08-07T13:52:04.741Z,1.60
2022-08-07T13:54:41.151Z,3.72
2022-08-07T13:57:22.478Z,1.73
2022-08-07T13:59:55.717Z,1.70
2022-08-07T14:02:33.444Z,1.13
2022-08-07T14:05:10.035Z,2.08
2022-08-07T14:08:00.477Z,1.50
2022-08-07T14:10:42.079Z,2.25
2022-08-07T14:13:12.313Z,1.63
2022-08-07T14:15:42.265Z,1.88
2022-08-07T14:18:28.447Z,1.55
2022-08-07T14:21:07.843Z,1.80
2022-08-07T14:24:00.630Z,2.55
2022-08-07T14:26:29.788Z,2.13
2022-08-07T14:29:06.080Z,2.25
2022-08-07T14:31:42.833Z,1.55
2022-08-07T14:34:29.736Z,1.45
2022-08-07T14:37:01.799Z,2.78
2022-08-07T14:40:14.762Z,1.42
2022-08-07T14:42:27.592Z,2.03
2022-08-07T14:45:22.413Z,1.30
2022-08-07T14:47:58.605Z,3.22
2022-08-07T14:53:18.427Z,2.10
2022-08-07T14:56:07.547Z,2.10
2022-08-07T14:58:47.304Z,1.50
2022-08-07T15:01:22.475Z,1.98
2022-08-07T15:03:53.427Z,1.80
2022-08-07T15:06:25.192Z,2.00
2022-08-07T15:08:54.984Z,1.83
2022-08-07T15:14:19.138Z,1.63
2022-08-07T15:16:54.775Z,1.83
2022-08-07T15:22:29.529Z,1.75
2022-08-07T15:25:18.274Z,3.33
2022-08-07T15:28:26.544Z,1.60
2022-08-07T15:31:05.091Z,2.58
2022-08-07T15:33:33.889Z,2.72
2022-08-07T15:36:06.756Z,2.22
2022-08-07T15:38:51.374Z,1.70
2022-08-07T15:42:45.877Z,1.63
2022-08-07T15:44:16.237Z,4.05
2022-08-07T15:50:05.739Z,2.40
2022-08-07T15:52:30.812Z,1.75
2022-08-07T15:55:02.818Z,2.30
2022-08-07T15:57:39.823Z,2.35
2022-08-07T16:00:32.196Z,2.00
2022-08-07T16:03:06.399Z,1.92
2022-08-07T16:05:38.811Z,1.42
2022-08-07T16:08:31.925Z,3.35
2022-08-07T16:11:03.064Z,2.55
2022-08-07T16:13:58.695Z,1.90
2022-08-07T16:16:48.944Z,1.88
2022-08-07T16:19:42.680Z,3.60
2022-08-07T16:22:38.620Z,2.70
2022-08-07T16:25:54.916Z,2.90
2022-08-07T16:29:18.577Z,1.60
2022-08-07T16:31:51.343Z,3.03
2022-08-07T16:34:29.130Z,2.17
2022-08-07T16:38:05.229Z,2.28
2022-08-07T16:40:23.025Z,2.50
2022-08-07T16:43:00.306Z,1.48
2022-08-07T16:46:47.543Z,2.28
2022-08-07T16:49:04.374Z,1.92
2022-08-07T16:52:01.721Z,2.70
2022-08-07T16:54:33.067Z,1.60
2022-08-07T16:57:15.543Z,1.85
2022-08-07T16:59:51.485Z,2.03
2022-08-07T17:02:53.611Z,2.40
2022-08-07T17:06:01.710Z,2.97
2022-08-07T17:08:26.034Z,2.65
2022-08-07T17:10:57.446Z,1.77
2022-08-07T17:14:19.656Z,1.75
2022-08-07T17:16:43.680Z,1.65
2022-08-07T17:19:16.755Z,1.70
2022-08-07T17:21:51.500Z,1.70
2022-08-07T17:24:29.816Z,2.03
2022-08-07T17:27:02.966Z,2.15
2022-08-07T17:30:15.380Z,2.63
2022-08-07T17:32:31.397Z,2.03
2022-08-07T17:35:51.058Z,3.00
2022-08-07T17:38:09.739Z,1.80
2022-08-07T17:40:51.464Z,2.40
2022-08-07T17:44:00.883Z,2.42
2022-08-07T17:46:15.498Z,1.70
2022-08-07T17:49:00.551Z,2.28
2022-08-07T17:51:59.797Z,2.53
2022-08-07T17:54:40.104Z,2.10
2022-08-07T17:57:23.006Z,1.77
2022-08-07T17:59:54.519Z,4.07
2022-08-07T18:02:28.392Z,2.00
2022-08-07T18:05:20.684Z,1.98
2022-08-07T18:07:57.222Z,2.10
2022-08-07T18:10:33.336Z,2.10
2022-08-07T18:13:23.335Z,2.70
2022-08-07T18:16:03.861Z,2.00
2022-08-07T18:21:04.598Z,2.08
2022-08-07T18:21:51.637Z,1.80
2022-08-07T18:24:33.255Z,3.17
2022-08-07T18:27:17.471Z,2.83
2022-08-07T18:30:07.390Z,2.35
2022-08-07T18:33:10.905Z,2.38
2022-08-07T18:35:52.049Z,2.13
2022-08-07T18:38:56.626Z,2.20
2022-08-07T18:41:21.045Z,2.45
2022-08-07T18:43:59.898Z,4.22
2022-08-07T18:46:36.286Z,3.10
2022-08-07T18:50:19.517Z,2.58
2022-08-07T18:52:53.866Z,2.47
2022-08-07T18:55:28.616Z,2.30
2022-08-07T18:58:20.350Z,3.05
2022-08-07T19:00:54.132Z,2.67
2022-08-07T19:03:38.116Z,4.68
2022-08-07T19:06:11.003Z,2.60
2022-08-07T19:08:52.356Z,2.78
2022-08-07T19:11:36.665Z,2.47
2022-08-07T19:14:17.078Z,3.40
2022-08-07T19:17:07.005Z,2.15
2022-08-07T19:19:53.218Z,3.10
2022-08-07T19:22:31.379Z,2.75
2022-08-07T19:25:05.456Z,2.88
2022-08-07T19:28:29.693Z,2.30
2022-08-07T19:31:05.372Z,2.70
2022-08-07T19:33:17.440Z,2.85
2022-08-07T19:35:53.207Z,2.72
2022-08-07T19:38:23.475Z,2.60
2022-08-07T19:40:58.945Z,3.00
2022-08-07T19:43:43.499Z,3.47
2022-08-07T19:46:20.750Z,3.55
2022-08-07T19:48:59.543Z,5.22
2022-08-07T19:51:52.343Z,2.97
2022-08-07T19:54:31.354Z,3.50
2022-08-07T19:57:59.905Z,2.70
2022-08-07T19:59:57.204Z,5.03
2022-08-07T20:02:29.838Z,3.38
2022-08-07T20:05:00.433Z,2.60
2022-08-07T20:07:47.945Z,2.90
2022-08-07T20:10:36.796Z,3.58
2022-08-07T20:13:22.687Z,2.92
2022-08-07T20:15:55.268Z,2.70
2022-08-07T20:18:32.189Z,2.70
2022-08-07T20:21:02.227Z,3.20
2022-08-07T20:23:42.833Z,2.65
2022-08-07T20:26:29.675Z,3.65
2022-08-07T20:29:10.715Z,3.10
2022-08-07T20:31:58.415Z,2.60
2022-08-07T20:34:49.376Z,2.70
2022-08-07T20:37:16.393Z,2.40
2022-08-07T20:40:04.088Z,4.30
2022-08-07T20:42:33.967Z,2.50
2022-08-07T20:45:04.513Z,2.70
2022-08-07T20:47:56.553Z,2.67
2022-08-07T20:50:28.961Z,2.63
2022-08-07T20:52:59.527Z,2.70
2022-08-07T20:55:28.286Z,3.83
2022-08-07T20:58:03.368Z,2.88
2022-08-07T21:00:42.776Z,2.28
2022-08-07T21:03:16.149Z,2.75
2022-08-07T21:05:55.695Z,2.63
2022-08-07T21:08:36.647Z,3.05
2022-08-07T21:11:10.553Z,2.63
2022-08-07T21:13:57.070Z,2.15
2022-08-07T21:16:30.461Z,2.10
2022-08-07T21:19:01.727Z,2.45
2022-08-07T21:21:33.284Z,2.90
2022-08-07T21:24:25.003Z,2.70
2022-08-07T21:26:57.816Z,2.40
2022-08-07T21:29:33.372Z,2.97
2022-08-07T21:32:47.459Z,2.63
2022-08-07T21:34:57.986Z,2.38
2022-08-07T21:37:57.374Z,2.70
2022-08-07T21:40:23.201Z,2.50
2022-08-07T21:42:56.987Z,2.50
2022-08-07T21:46:07.847Z,2.70
2022-08-07T21:48:28.768Z,2.40
2022-08-07T21:51:06.789Z,4.88
2022-08-07T21:53:37.078Z,3.78
2022-08-07T21:56:37.755Z,5.20
2022-08-07T21:59:10.004Z,2.35
2022-08-07T22:02:07.697Z,5.57
2022-08-07T22:04:29.810Z,3.33
2022-08-07T22:07:03.282Z,2.70
2022-08-07T22:09:38.128Z,3.03
2022-08-07T22:12:25.082Z,2.90
2022-08-07T22:15:00.175Z,2.75
2022-08-07T22:17:35.764Z,3.33
2022-08-07T22:20:08.731Z,5.60
2022-08-07T22:22:57.296Z,2.83
2022-08-07T22:25:28.609Z,3.33
2022-08-07T22:28:31.159Z,2.38
2022-08-07T22:31:06.900Z,3.08
2022-08-07T22:33:56.621Z,3.15
2022-08-07T22:36:31.077Z,3.10
2022-08-07T22:39:04.558Z,2.78
2022-08-07T22:42:03.772Z,3.90
2022-08-07T22:44:26.806Z,4.88
2022-08-07T22:47:11.419Z,3.30
2022-08-07T22:50:03.023Z,4.13
2022-08-07T22:52:43.515Z,4.70
2022-08-07T22:55:30.770Z,2.88
2022-08-07T22:58:17.081Z,4.35
2022-08-07T23:00:50.524Z,4.07
2022-08-07T23:03:28.563Z,3.30
2022-08-07T23:06:15.390Z,3.10
2022-08-07T23:08:54.535Z,3.75
2022-08-07T23:11:35.191Z,2.97
2022-08-07T23:14:22.724Z,3.92
2022-08-07T23:16:58.926Z,3.40
2022-08-07T23:19:51.690Z,3.13
2022-08-07T23:22:28.301Z,3.23
2022-08-07T23:25:03.990Z,2.97
2022-08-07T23:28:21.192Z,3.90
2022-08-07T23:30:45.851Z,6.57
2022-08-07T23:34:35.190Z,2.97
2022-08-07T23:36:34.784Z,5.63
2022-08-07T23:39:09.386Z,3.33
2022-08-07T23:42:01.677Z,3.43
2022-08-07T23:44:42.551Z,3.93
2022-08-07T23:47:24.643Z,4.00
2022-08-07T23:50:16.033Z,3.63
2022-08-07T23:52:58.356Z,3.90
2022-08-07T23:55:51.843Z,3.83
2022-08-07T23:58:25.693Z,3.50
